Time;durP1;ratioP1;P1;durP2;ratioP2;P2;SDS_P1;SDS_P2;PMS_P1;PMS_P2;Temp;Humidity;BMP_temperature;BMP_pressure;BME280_temperature;BME280_humidity;BME280_pressure;Samples;Min_cycle;Max_cycle;Signal;HPM_P1;HPM_P2
2021/10/14 00:01:43;;;;;;;7.93;3.60;;;11.50;90.10;;;;;;4999657;28;20060;-66
2021/10/14 00:04:15;;;;;;;6.72;4.22;;;11.50;90.10;;;;;;5000348;28;20409;-66
2021/10/14 00:06:40;;;;;;;8.00;3.42;;;11.50;90.10;;;;;;4999106;28;20084;-66
2021/10/14 00:09:06;;;;;;;6.63;3.97;;;11.50;90.20;;;;;;4999687;28;20463;-66
2021/10/14 00:11:32;;;;;;;13.80;4.43;;;11.60;90.20;;;;;;5002391;28;20553;-66
2021/10/14 00:13:58;;;;;;;9.18;3.72;;;11.60;90.10;;;;;;5002592;28;20105;-66
2021/10/14 00:16:23;;;;;;;8.55;4.43;;;11.50;90.20;;;;;;5000003;28;20057;-66
2021/10/14 00:18:49;;;;;;;9.00;4.10;;;11.60;90.20;;;;;;4999893;28;20052;-66
2021/10/14 00:21:15;;;;;;;10.25;3.70;;;11.60;90.20;;;;;;5001707;28;20040;-66
2021/10/14 00:23:40;;;;;;;12.65;4.80;;;11.60;90.30;;;;;;5001139;28;20165;-66
2021/10/14 00:26:06;;;;;;;7.38;3.67;;;11.60;90.20;;;;;;5001625;28;20037;-66
2021/10/14 00:28:31;;;;;;;8.75;4.40;;;11.60;90.20;;;;;;4999881;28;20038;-65
2021/10/14 00:30:57;;;;;;;7.38;4.05;;;11.60;90.30;;;;;;5002086;28;20117;-66
2021/10/14 00:33:23;;;;;;;6.10;3.60;;;11.70;90.30;;;;;;4983192;28;20035;-66
2021/10/14 00:35:48;;;;;;;6.95;3.78;;;11.70;90.20;;;;;;5000938;28;20486;-65
2021/10/14 00:38:14;;;;;;;6.15;3.60;;;11.70;90.20;;;;;;5002201;28;20045;-66
2021/10/14 00:40:42;;;;;;;9.55;3.72;;;11.70;90.10;;;;;;5000859;28;20042;-66
2021/10/14 00:43:08;;;;;;;5.88;3.60;;;11.70;90.10;;;;;;5000110;28;20044;-66
2021/10/14 00:45:33;;;;;;;9.73;3.92;;;11.70;90.10;;;;;;5001251;28;20049;-66
2021/10/14 00:47:59;;;;;;;7.13;3.75;;;11.70;90.20;;;;;;5004290;28;20041;-66
2021/10/14 00:50:25;;;;;;;8.40;4.05;;;11.70;90.20;;;;;;5004560;28;20500;-66
2021/10/14 00:52:52;;;;;;;5.43;3.28;;;11.70;90.20;;;;;;5005192;28;20060;-66
2021/10/14 00:55:18;;;;;;;7.18;4.00;;;11.70;90.20;;;;;;5004534;28;20033;-66
2021/10/14 00:57:43;;;;;;;6.30;3.10;;;11.70;90.30;;;;;;5004655;28;20034;-66
2021/10/14 01:00:09;;;;;;;7.35;3.28;;;11.70;90.40;;;;;;5004555;28;20026;-67
2021/10/14 01:02:36;;;;;;;5.55;3.10;;;11.70;90.80;;;;;;4995463;28;20120;-66
2021/10/14 01:05:02;;;;;;;10.23;4.18;;;11.70;90.50;;;;;;5005529;28;20049;-66
2021/10/14 01:07:29;;;;;;;9.05;3.55;;;11.70;90.30;;;;;;4986651;28;20083;-66
2021/10/14 01:09:55;;;;;;;8.25;3.78;;;11.70;90.40;;;;;;5004320;28;20064;-67
2021/10/14 01:12:22;;;;;;;6.57;3.20;;;11.70;90.30;;;;;;5004211;28;20030;-66
2021/10/14 01:14:47;;;;;;;8.98;3.58;;;11.70;90.30;;;;;;4987365;28;20406;-67
2021/10/14 01:17:13;;;;;;;9.40;4.15;;;11.80;90.40;;;;;;4986047;28;20034;-66
2021/10/14 01:19:43;;;;;;;6.88;3.75;;;11.80;90.40;;;;;;5005453;28;20049;-66
2021/10/14 01:22:09;;;;;;;6.75;3.88;;;11.70;90.40;;;;;;5005467;28;20037;-66
2021/10/14 01:24:35;;;;;;;7.28;4.20;;;11.70;90.30;;;;;;5004470;28;20045;-66
2021/10/14 01:27:05;;;;;;;7.55;3.92;;;11.70;90.50;;;;;;5005613;28;20030;-66
2021/10/14 01:29:31;;;;;;;10.23;3.97;;;11.70;90.60;;;;;;5003473;28;20053;-65
2021/10/14 01:31:58;;;;;;;9.70;4.18;;;11.70;90.50;;;;;;5003702;28;20034;-66
2021/10/14 01:34:24;;;;;;;8.25;4.57;;;11.70;90.40;;;;;;5002511;28;20518;-66
2021/10/14 01:36:49;;;;;;;12.32;5.18;;;11.70;90.60;;;;;;5002793;28;20053;-65
2021/10/14 01:39:15;;;;;;;8.52;4.75;;;11.60;90.60;;;;;;5002862;28;20042;-65
2021/10/14 01:41:45;;;;;;;7.63;4.57;;;11.70;90.80;;;;;;5003766;28;20018;-65
2021/10/14 01:44:12;;;;;;;11.88;5.95;;;11.70;90.80;;;;;;4986210;28;20034;-65
2021/10/14 01:46:38;;;;;;;6.68;4.53;;;11.70;90.70;;;;;;5002329;28;20069;-65
2021/10/14 01:49:04;;;;;;;14.55;5.38;;;11.70;90.80;;;;;;5003730;28;20080;-65
2021/10/14 01:51:30;;;;;;;10.23;5.38;;;11.70;90.80;;;;;;5002226;28;20085;-65
2021/10/14 01:53:55;;;;;;;9.38;5.18;;;11.70;91.00;;;;;;5001806;28;20612;-65
2021/10/14 01:56:21;;;;;;;12.43;5.63;;;11.60;91.20;;;;;;5002210;28;20069;-65
2021/10/14 01:58:47;;;;;;;11.32;5.35;;;11.60;91.30;;;;;;5001580;28;20030;-65
2021/10/14 02:01:12;;;;;;;11.00;6.30;;;11.60;91.30;;;;;;4985371;28;20501;-65
2021/10/14 02:03:38;;;;;;;10.10;5.68;;;11.60;91.40;;;;;;4984826;28;20055;-65
2021/10/14 02:06:04;;;;;;;7.82;5.20;;;11.70;91.50;;;;;;5002762;28;20034;-65
2021/10/14 02:08:29;;;;;;;10.77;5.45;;;11.70;91.50;;;;;;5002410;28;20124;-65
2021/10/14 02:10:55;;;;;;;9.40;4.70;;;11.70;91.50;;;;;;5001709;28;20045;-65
2021/10/14 02:13:21;;;;;;;7.93;4.65;;;11.60;91.40;;;;;;5001399;28;20038;-64
2021/10/14 02:15:46;;;;;;;8.32;5.05;;;11.60;91.50;;;;;;5002072;28;20402;-65
2021/10/14 02:18:12;;;;;;;8.13;4.18;;;11.60;91.70;;;;;;5002133;28;20148;-65
2021/10/14 02:20:38;;;;;;;8.35;4.50;;;11.50;91.90;;;;;;5002847;28;20026;-65
2021/10/14 02:23:04;;;;;;;8.70;4.47;;;11.50;91.90;;;;;;5003172;28;20633;-65
2021/10/14 02:25:30;;;;;;;7.47;3.90;;;11.40;92.20;;;;;;5000780;28;20500;-65
2021/10/14 02:27:55;;;;;;;7.05;4.13;;;11.40;92.40;;;;;;5002918;28;20084;-65
2021/10/14 02:30:21;;;;;;;6.05;3.70;;;11.40;92.50;;;;;;5002433;28;20744;-65
2021/10/14 02:32:47;;;;;;;5.88;3.63;;;11.40;92.50;;;;;;5001017;28;20430;-65
2021/10/14 02:35:12;;;;;;;5.60;3.08;;;11.30;92.60;;;;;;4986172;28;20034;-64
2021/10/14 02:37:38;;;;;;;6.22;3.08;;;11.30;92.60;;;;;;4986779;28;20084;-64
2021/10/14 02:40:05;;;;;;;6.78;3.53;;;11.20;92.80;;;;;;5003130;28;20096;-65
2021/10/14 02:42:31;;;;;;;4.45;3.03;;;11.10;93.20;;;;;;5002548;28;20041;-67
2021/10/14 02:44:57;;;;;;;6.47;3.30;;;11.00;93.40;;;;;;5002069;28;20042;-67
2021/10/14 02:47:22;;;;;;;6.47;3.88;;;11.00;93.60;;;;;;5002125;28;20038;-67
2021/10/14 02:49:48;;;;;;;7.88;3.65;;;11.00;93.50;;;;;;5002971;28;20037;-67
2021/10/14 02:52:14;;;;;;;7.97;3.50;;;11.00;93.50;;;;;;5009947;28;20722;-67
2021/10/14 02:54:39;;;;;;;4.60;3.88;;;11.10;93.50;;;;;;5005706;28;20132;-67
2021/10/14 02:57:05;;;;;;;6.00;3.42;;;11.10;93.60;;;;;;4985410;28;20034;-66
2021/10/14 02:59:31;;;;;;;6.10;3.60;;;11.10;93.40;;;;;;5000343;28;20038;-66
2021/10/14 03:01:56;;;;;;;7.13;3.65;;;11.10;93.50;;;;;;5002340;28;20045;-66
2021/10/14 03:04:22;;;;;;;5.80;3.53;;;11.10;93.50;;;;;;4993499;28;20030;-66
2021/10/14 03:06:48;;;;;;;6.53;3.83;;;11.10;93.50;;;;;;5002192;28;20029;-66
2021/10/14 03:09:14;;;;;;;5.43;3.63;;;11.20;93.50;;;;;;5002549;28;20084;-66
2021/10/14 03:11:40;;;;;;;3.20;2.90;;;11.10;93.50;;;;;;5001526;28;20092;-67
2021/10/14 03:14:06;;;;;;;4.45;2.60;;;11.10;93.60;;;;;;5002900;28;20037;-66
2021/10/14 03:16:32;;;;;;;5.30;2.97;;;11.10;93.90;;;;;;5001584;28;20148;-66
2021/10/14 03:18:57;;;;;;;5.10;2.83;;;11.10;93.70;;;;;;5002142;28;20064;-66
2021/10/14 03:21:23;;;;;;;5.40;2.63;;;11.00;93.80;;;;;;5000870;28;20034;-67
2021/10/14 03:23:50;;;;;;;5.05;2.75;;;11.10;93.70;;;;;;5000954;28;20030;-66
2021/10/14 03:26:16;;;;;;;6.22;3.03;;;11.10;93.80;;;;;;5002765;28;20482;-66
2021/10/14 03:28:41;;;;;;;4.43;2.38;;;11.10;93.80;;;;;;5001944;28;20044;-66
2021/10/14 03:31:07;;;;;;;3.20;2.40;;;11.10;93.90;;;;;;5002603;28;20034;-66
2021/10/14 03:33:33;;;;;;;3.22;2.50;;;11.00;94.00;;;;;;5002484;28;20041;-67
2021/10/14 03:35:58;;;;;;;4.25;2.22;;;11.00;94.00;;;;;;5001895;28;20030;-67
2021/10/14 03:38:24;;;;;;;3.40;2.10;;;11.00;94.00;;;;;;5001649;28;20564;-66
2021/10/14 03:40:50;;;;;;;2.35;2.08;;;11.10;94.10;;;;;;4984110;28;20530;-63
2021/10/14 03:43:16;;;;;;;2.67;2.17;;;11.10;94.40;;;;;;4999957;28;20029;-66
2021/10/14 03:45:42;;;;;;;3.20;2.17;;;11.20;93.90;;;;;;5000243;28;20446;-67
2021/10/14 03:48:08;;;;;;;2.22;1.73;;;11.10;93.90;;;;;;4999777;28;20034;-66
2021/10/14 03:50:34;;;;;;;2.30;2.10;;;11.10;94.00;;;;;;5000138;28;20327;-66
2021/10/14 03:53:00;;;;;;;3.42;2.25;;;11.20;94.00;;;;;;4999197;28;20136;-66
2021/10/14 03:55:25;;;;;;;2.20;1.95;;;11.10;94.00;;;;;;4999984;28;20048;-66
2021/10/14 03:57:51;;;;;;;3.28;2.17;;;11.10;94.20;;;;;;5000502;28;20088;-67
2021/10/14 04:00:17;;;;;;;2.38;2.00;;;11.10;94.50;;;;;;5001806;28;20033;-66
2021/10/14 04:02:43;;;;;;;3.05;2.55;;;11.20;94.00;;;;;;4983689;28;20517;-66
2021/10/14 04:05:09;;;;;;;2.70;2.13;;;11.20;93.90;;;;;;5001912;28;20036;-66
2021/10/14 04:07:35;;;;;;;3.22;2.10;;;11.10;94.00;;;;;;4984279;28;20430;-66
2021/10/14 04:10:00;;;;;;;2.25;2.05;;;11.10;94.10;;;;;;5001187;28;20036;-66
2021/10/14 04:12:26;;;;;;;2.80;2.15;;;11.10;94.20;;;;;;5001726;28;20044;-67
2021/10/14 04:14:52;;;;;;;2.60;2.30;;;11.20;94.20;;;;;;5001864;28;20030;-66
2021/10/14 04:17:18;;;;;;;3.05;2.20;;;11.20;94.10;;;;;;5000488;28;20034;-66
2021/10/14 04:19:44;;;;;;;2.70;1.98;;;11.20;94.20;;;;;;4999861;28;20046;-66
2021/10/14 04:22:09;;;;;;;3.00;2.17;;;11.10;94.10;;;;;;4998397;28;20026;-66
2021/10/14 04:24:38;;;;;;;2.40;2.03;;;11.20;94.20;;;;;;5002696;28;20500;-66
2021/10/14 04:27:04;;;;;;;2.05;1.85;;;11.20;94.30;;;;;;5004185;28;20137;-66
2021/10/14 04:29:29;;;;;;;2.22;2.03;;;11.20;94.20;;;;;;4999729;28;20110;-65
2021/10/14 04:31:55;;;;;;;2.35;1.88;;;11.10;94.10;;;;;;5001202;28;20038;-66
2021/10/14 04:34:21;;;;;;;2.42;2.00;;;11.20;94.30;;;;;;5000477;28;20037;-66
2021/10/14 04:36:47;;;;;;;1.98;1.52;;;11.10;94.30;;;;;;4983179;28;20042;-66
2021/10/14 04:39:13;;;;;;;1.95;1.83;;;11.10;94.20;;;;;;5001296;28;20046;-66
2021/10/14 04:41:39;;;;;;;1.73;1.48;;;11.20;94.30;;;;;;5002126;28;20530;-66
2021/10/14 04:44:05;;;;;;;2.85;1.73;;;11.20;94.30;;;;;;5000648;28;20037;-66
2021/10/14 04:46:31;;;;;;;1.80;1.27;;;11.20;94.30;;;;;;5002662;28;20083;-66
2021/10/14 04:48:57;;;;;;;2.50;1.50;;;11.30;94.20;;;;;;4983805;28;20120;-66
2021/10/14 04:51:22;;;;;;;1.70;1.60;;;11.20;94.30;;;;;;5000584;28;20128;-66
2021/10/14 04:53:48;;;;;;;1.55;1.45;;;11.20;94.30;;;;;;5000446;28;20037;-66
2021/10/14 04:56:14;;;;;;;1.95;1.25;;;11.30;94.40;;;;;;4999512;28;20052;-66
2021/10/14 04:58:40;;;;;;;1.83;1.50;;;11.30;94.10;;;;;;5000287;28;20037;-66
2021/10/14 05:01:05;;;;;;;1.40;1.30;;;11.40;94.10;;;;;;5000011;28;20402;-66
2021/10/14 05:03:31;;;;;;;1.30;1.20;;;11.30;94.20;;;;;;5001722;28;20053;-66
2021/10/14 05:05:57;;;;;;;1.85;1.73;;;11.30;94.40;;;;;;4984468;28;20137;-66
2021/10/14 05:08:22;;;;;;;1.70;1.50;;;11.20;94.40;;;;;;4999638;28;20068;-66
2021/10/14 05:10:48;;;;;;;1.48;1.38;;;11.10;94.70;;;;;;5000797;28;20049;-66
2021/10/14 05:13:14;;;;;;;2.60;1.30;;;11.10;95.20;;;;;;4999543;28;20038;-66
2021/10/14 05:15:41;;;;;;;1.60;1.50;;;11.10;94.90;;;;;;4999657;28;20045;-66
2021/10/14 05:18:07;;;;;;;2.20;1.23;;;11.10;95.00;;;;;;4998277;28;20071;-66
2021/10/14 05:20:33;;;;;;;2.00;1.38;;;11.20;95.00;;;;;;4998297;28;20068;-66
2021/10/14 05:22:59;;;;;;;2.20;1.58;;;11.20;94.80;;;;;;4998779;28;20095;-66
2021/10/14 05:25:25;;;;;;;2.63;1.63;;;11.30;94.70;;;;;;4999851;28;20030;-66
2021/10/14 05:27:51;;;;;;;1.50;1.35;;;11.40;94.70;;;;;;4998577;28;20677;-66
2021/10/14 05:30:18;;;;;;;1.40;1.30;;;11.40;94.50;;;;;;4999324;28;20026;-66
2021/10/14 05:32:44;;;;;;;1.77;1.33;;;11.40;94.60;;;;;;5002903;28;20030;-66
2021/10/14 05:35:10;;;;;;;1.55;1.30;;;11.40;94.60;;;;;;5004233;28;20065;-66
2021/10/14 05:37:35;;;;;;;1.50;1.40;;;11.50;94.50;;;;;;5004400;28;20036;-66
2021/10/14 05:40:03;;;;;;;1.70;1.60;;;11.50;94.40;;;;;;5005039;28;20397;-67
2021/10/14 05:42:29;;;;;;;3.75;2.25;;;11.60;94.30;;;;;;5003118;28;20026;-66
2021/10/14 05:44:55;;;;;;;2.67;2.00;;;11.60;94.20;;;;;;5003767;28;20107;-66
2021/10/14 05:47:20;;;;;;;4.72;1.58;;;11.60;94.20;;;;;;4986593;28;20034;-66
2021/10/14 05:49:46;;;;;;;1.70;1.60;;;11.60;94.10;;;;;;5003850;28;20037;-65
2021/10/14 05:52:12;;;;;;;1.52;1.42;;;11.60;94.20;;;;;;5004428;28;20034;-66
2021/10/14 05:54:37;;;;;;;2.05;1.77;;;11.60;94.20;;;;;;4983768;28;20091;-66
2021/10/14 05:57:03;;;;;;;2.70;2.25;;;11.50;94.20;;;;;;5004537;28;20501;-66
2021/10/14 05:59:29;;;;;;;2.45;1.90;;;11.40;94.60;;;;;;5004044;28;20037;-66
2021/10/14 06:01:55;;;;;;;2.05;1.88;;;11.40;94.70;;;;;;5004224;28;20037;-66
2021/10/14 06:04:20;;;;;;;3.22;2.40;;;11.50;94.70;;;;;;5002573;28;20589;-66
2021/10/14 06:06:46;;;;;;;3.55;2.05;;;11.60;94.60;;;;;;5002008;28;20033;-66
2021/10/14 06:09:12;;;;;;;2.97;2.45;;;11.70;94.40;;;;;;5000807;28;20036;-66
2021/10/14 06:11:37;;;;;;;4.10;2.85;;;11.70;94.30;;;;;;5002799;28;20030;-65
2021/10/14 06:14:03;;;;;;;2.85;2.55;;;11.70;94.20;;;;;;5001260;28;20064;-66
2021/10/14 06:16:29;;;;;;;4.15;2.40;;;11.80;94.00;;;;;;5003854;28;20036;-66
2021/10/14 06:18:55;;;;;;;2.58;2.38;;;11.70;94.10;;;;;;5001903;28;20048;-66
2021/10/14 06:21:20;;;;;;;4.00;3.60;;;11.80;94.10;;;;;;5002514;28;20029;-66
2021/10/14 06:23:46;;;;;;;6.55;3.95;;;11.80;94.10;;;;;;5003270;28;20084;-67
2021/10/14 06:26:12;;;;;;;4.50;3.15;;;11.90;94.00;;;;;;5005294;28;20548;-66
2021/10/14 06:28:38;;;;;;;3.53;3.22;;;11.90;94.10;;;;;;5005258;28;20123;-66
2021/10/14 06:31:04;;;;;;;5.97;4.30;;;11.90;94.00;;;;;;5004567;28;20046;-66
2021/10/14 06:33:30;;;;;;;5.45;3.45;;;12.00;94.00;;;;;;5004964;28;20038;-66
2021/10/14 06:35:55;;;;;;;4.68;3.28;;;12.10;93.90;;;;;;4993119;28;20521;-66
2021/10/14 06:38:21;;;;;;;4.43;3.83;;;12.00;93.80;;;;;;5003312;28;20034;-65
2021/10/14 06:40:47;;;;;;;5.30;3.80;;;12.10;93.80;;;;;;5004840;28;20808;-65
2021/10/14 06:43:12;;;;;;;5.05;3.92;;;12.20;93.80;;;;;;4985586;28;20041;-66
2021/10/14 06:45:38;;;;;;;4.38;3.97;;;12.20;93.70;;;;;;5008560;28;20033;-67
2021/10/14 06:48:05;;;;;;;7.03;5.35;;;12.20;93.70;;;;;;4990142;28;20112;-67
2021/10/14 06:50:31;;;;;;;7.03;5.25;;;12.20;93.60;;;;;;5006440;28;20490;-67
2021/10/14 06:52:57;;;;;;;6.57;5.00;;;12.30;93.60;;;;;;5004149;28;20038;-66
2021/10/14 06:55:23;;;;;;;6.30;5.00;;;12.30;93.50;;;;;;5002583;28;20061;-66
2021/10/14 06:57:48;;;;;;;7.82;5.90;;;12.30;93.30;;;;;;5003848;28;20577;-66
2021/10/14 07:00:14;;;;;;;7.72;5.65;;;12.30;93.50;;;;;;5003436;28;20077;-66
2021/10/14 07:02:40;;;;;;;6.80;5.05;;;12.30;93.50;;;;;;4985010;28;20049;-66
2021/10/14 07:05:06;;;;;;;7.15;5.53;;;12.40;93.50;;;;;;5001576;28;20056;-66
2021/10/14 07:07:32;;;;;;;5.43;4.55;;;12.40;93.50;;;;;;4982836;28;20041;-68
2021/10/14 07:09:58;;;;;;;6.45;5.18;;;12.40;93.50;;;;;;5001480;28;20042;-70
2021/10/14 07:12:28;;;;;;;8.52;5.53;;;12.50;93.50;;;;;;5002223;28;20030;-82
2021/10/14 07:14:54;;;;;;;8.77;6.15;;;12.50;93.50;;;;;;5002078;28;20041;-71
2021/10/14 07:17:21;;;;;;;7.82;5.60;;;12.60;93.50;;;;;;5001605;28;20034;-70
2021/10/14 07:19:47;;;;;;;7.70;5.93;;;12.70;93.30;;;;;;5000575;28;20092;-66
2021/10/14 07:22:12;;;;;;;8.50;6.40;;;12.70;93.30;;;;;;5002150;28;20061;-70
2021/10/14 07:24:38;;;;;;;7.97;6.22;;;12.70;93.20;;;;;;5002178;28;20022;-70
2021/10/14 07:27:07;;;;;;;8.38;6.53;;;12.80;93.10;;;;;;5000787;28;20840;-70
2021/10/14 07:29:34;;;;;;;7.93;5.70;;;12.80;93.10;;;;;;5001301;28;20473;-70
2021/10/14 07:32:00;;;;;;;8.18;6.15;;;12.80;93.00;;;;;;5001567;28;20374;-70
2021/10/14 07:34:26;;;;;;;8.27;6.65;;;12.80;93.10;;;;;;4983454;28;20044;-70
2021/10/14 07:36:52;;;;;;;7.70;6.30;;;12.80;93.00;;;;;;4984712;28;20121;-68
2021/10/14 07:39:20;;;;;;;10.32;6.60;;;12.90;93.10;;;;;;5000971;28;20038;-69
2021/10/14 07:41:46;;;;;;;8.10;6.50;;;12.90;93.20;;;;;;4999931;28;20036;-68
2021/10/14 07:44:16;;;;;;;10.43;7.78;;;12.90;93.00;;;;;;4999696;28;20038;-67
2021/10/14 07:46:44;;;;;;;8.30;6.80;;;13.00;92.80;;;;;;5002242;28;20037;-68
2021/10/14 07:49:10;;;;;;;7.68;6.15;;;13.00;92.90;;;;;;5000935;28;20881;-67
2021/10/14 07:51:36;;;;;;;9.10;6.70;;;13.00;92.90;;;;;;5002696;28;20120;-68
2021/10/14 07:54:03;;;;;;;10.35;7.40;;;13.00;92.80;;;;;;4968863;28;20157;-65
2021/10/14 07:56:29;;;;;;;8.50;6.70;;;13.00;92.90;;;;;;5001291;28;20048;-68
2021/10/14 07:58:54;;;;;;;8.88;6.88;;;13.00;92.80;;;;;;4983641;28;20410;-67
2021/10/14 08:01:20;;;;;;;9.80;7.20;;;13.10;92.50;;;;;;5001263;28;20422;-67
2021/10/14 08:03:47;;;;;;;10.65;7.43;;;13.10;92.70;;;;;;5000118;28;20034;-67
2021/10/14 08:06:13;;;;;;;8.82;6.65;;;13.00;92.60;;;;;;5002283;28;20073;-67
2021/10/14 08:08:39;;;;;;;8.68;6.38;;;13.00;92.70;;;;;;5000017;28;20069;-68
2021/10/14 08:11:05;;;;;;;7.85;6.18;;;13.00;92.80;;;;;;5001613;28;20065;-69
2021/10/14 08:13:31;;;;;;;9.70;7.43;;;13.10;92.80;;;;;;5000777;28;20069;-69
2021/10/14 08:15:57;;;;;;;7.43;6.10;;;13.10;92.80;;;;;;5000314;28;20477;-70
2021/10/14 08:18:23;;;;;;;8.40;7.05;;;13.20;92.70;;;;;;5001837;28;20036;-74
2021/10/14 08:20:50;;;;;;;10.52;6.88;;;13.20;92.70;;;;;;5001906;28;20073;-68
2021/10/14 08:23:17;;;;;;;8.57;6.38;;;13.20;92.60;;;;;;5000344;28;20029;-68
2021/10/14 08:25:43;;;;;;;8.43;6.15;;;13.30;92.70;;;;;;5002168;28;20061;-69
2021/10/14 08:28:09;;;;;;;8.27;6.82;;;13.30;92.80;;;;;;5000572;28;20809;-68
2021/10/14 08:30:35;;;;;;;9.55;6.35;;;13.40;92.80;;;;;;5001448;28;20030;-68
2021/10/14 08:33:01;;;;;;;10.68;6.45;;;13.40;92.70;;;;;;5000087;28;20029;-69
2021/10/14 08:35:26;;;;;;;9.45;6.78;;;13.40;92.70;;;;;;4999746;28;20041;-69
2021/10/14 08:37:52;;;;;;;10.27;7.75;;;13.50;92.80;;;;;;5001343;28;20121;-68
2021/10/14 08:40:20;;;;;;;11.43;8.48;;;13.50;92.70;;;;;;5000721;28;20472;-68
2021/10/14 08:42:47;;;;;;;11.07;8.63;;;13.60;92.50;;;;;;5001637;28;20046;-68
2021/10/14 08:45:13;;;;;;;9.50;7.13;;;13.60;92.50;;;;;;5000611;28;20037;-69
2021/10/14 08:47:40;;;;;;;11.82;7.10;;;13.50;92.60;;;;;;4984934;28;20033;-68
2021/10/14 08:50:07;;;;;;;9.63;7.30;;;13.60;92.50;;;;;;4981707;28;20091;-69
2021/10/14 08:52:33;;;;;;;11.20;7.25;;;13.60;92.60;;;;;;4981318;28;20677;-69
2021/10/14 08:54:59;;;;;;;7.75;6.13;;;13.70;92.50;;;;;;4997453;28;20037;-73
2021/10/14 08:57:28;;;;;;;11.27;7.57;;;13.70;92.30;;;;;;4996697;28;20088;-69
2021/10/14 08:59:54;;;;;;;7.95;6.50;;;13.80;92.40;;;;;;4999041;28;20656;-65
2021/10/14 09:02:20;;;;;;;9.57;6.35;;;13.80;92.50;;;;;;5001844;28;20041;-66
2021/10/14 09:04:50;;;;;;;8.52;6.47;;;14.00;92.30;;;;;;5000238;28;20076;-67
2021/10/14 09:07:17;;;;;;;10.82;6.50;;;14.10;92.40;;;;;;5001083;28;20042;-68
2021/10/14 09:09:44;;;;;;;9.45;7.07;;;14.00;91.90;;;;;;5004289;28;20034;-67
2021/10/14 09:12:11;;;;;;;10.00;7.28;;;14.10;92.30;;;;;;5003661;28;20046;-69
2021/10/14 09:14:59;;;;;;;7.10;5.70;;;14.10;92.20;;;;;;5003060;28;20050;-65
2021/10/14 09:17:36;;;;;;;7.82;5.60;;;14.10;92.10;;;;;;5003709;28;20072;-66
2021/10/14 09:20:20;;;;;;;6.30;5.38;;;14.10;92.10;;;;;;5002223;28;20040;-66
2021/10/14 09:22:53;;;;;;;8.30;4.90;;;14.10;91.90;;;;;;5000626;28;20030;-64
2021/10/14 09:25:41;;;;;;;7.38;4.95;;;14.10;92.00;;;;;;5002112;28;20099;-66
2021/10/14 09:28:17;;;;;;;6.75;4.78;;;14.00;91.90;;;;;;5003566;28;20441;-66
2021/10/14 09:30:58;;;;;;;6.03;4.43;;;14.00;91.90;;;;;;5000640;28;20275;-67
2021/10/14 09:33:40;;;;;;;4.32;3.38;;;14.00;92.10;;;;;;5005342;28;20117;-70
2021/10/14 09:36:17;;;;;;;4.28;3.70;;;14.10;92.10;;;;;;5004683;28;20382;-67
2021/10/14 09:38:57;;;;;;;4.10;3.13;;;14.10;92.10;;;;;;5004434;28;20040;-69
2021/10/14 09:41:24;;;;;;;4.57;2.80;;;14.10;92.10;;;;;;5004542;28;20133;-68
2021/10/14 09:43:55;;;;;;;3.80;3.10;;;14.00;92.30;;;;;;5005126;28;20509;-68
2021/10/14 09:46:37;;;;;;;3.33;2.65;;;14.00;92.50;;;;;;5005020;28;20031;-71
2021/10/14 09:49:05;;;;;;;2.70;2.42;;;14.00;92.50;;;;;;5004202;28;20034;-67
2021/10/14 09:51:32;;;;;;;2.72;2.30;;;14.10;92.50;;;;;;5004591;28;20042;-67
2021/10/14 09:53:59;;;;;;;3.28;2.53;;;14.20;92.60;;;;;;5004793;28;20377;-67
2021/10/14 09:56:27;;;;;;;9.98;5.40;;;14.20;92.80;;;;;;5003833;28;20711;-66
2021/10/14 09:58:53;;;;;;;4.05;2.80;;;14.30;92.70;;;;;;5004659;28;20085;-69
2021/10/14 10:01:19;;;;;;;3.13;2.35;;;14.20;92.70;;;;;;5004922;28;20030;-68
2021/10/14 10:03:46;;;;;;;1.73;1.40;;;14.10;92.90;;;;;;5003758;28;20042;-68
2021/10/14 10:06:13;;;;;;;3.75;2.17;;;14.10;92.90;;;;;;5003853;28;20492;-68
2021/10/14 10:08:42;;;;;;;7.38;3.50;;;14.10;93.00;;;;;;5004435;28;20129;-68
2021/10/14 10:11:15;;;;;;;3.40;2.10;;;14.10;93.00;;;;;;5003238;28;20034;-71
2021/10/14 10:13:46;;;;;;;3.80;2.67;;;14.00;93.10;;;;;;5004389;28;20030;-69
2021/10/14 10:16:17;;;;;;;11.77;7.22;;;14.10;93.20;;;;;;5003699;28;20050;-69
2021/10/14 10:18:45;;;;;;;4.40;2.45;;;14.10;93.10;;;;;;5002925;28;20049;-70
2021/10/14 10:21:32;;;;;;;21.25;12.45;;;14.10;93.20;;;;;;4992205;28;20048;-68
2021/10/14 10:23:58;;;;;;;35.17;18.60;;;14.10;93.20;;;;;;4985706;28;20065;-68
2021/10/14 10:26:35;;;;;;;29.38;16.23;;;14.00;93.10;;;;;;5004423;28;20115;-69
2021/10/14 10:29:17;;;;;;;11.63;6.50;;;14.10;93.60;;;;;;5003530;28;20036;-70
2021/10/14 10:31:48;;;;;;;42.13;19.42;;;14.20;93.50;;;;;;5005204;28;20030;-69
2021/10/14 10:37:13;;;;;;;6.03;3.92;;;14.40;93.50;;;;;;5001967;28;20052;-69
2021/10/14 10:39:47;;;;;;;8.43;5.50;;;14.50;93.30;;;;;;4991180;28;20069;-70
2021/10/14 10:42:15;;;;;;;6.55;5.05;;;14.50;92.70;;;;;;5004834;28;20514;-66
2021/10/14 10:44:42;;;;;;;7.55;4.68;;;14.50;92.70;;;;;;5002170;28;20064;-69
2021/10/14 10:47:36;;;;;;;8.25;4.97;;;14.50;92.90;;;;;;5002709;28;20037;-67
2021/10/14 10:50:04;;;;;;;9.43;5.75;;;14.50;92.80;;;;;;5000810;28;20083;-67
2021/10/14 10:52:38;;;;;;;17.85;11.98;;;14.60;92.70;;;;;;5001259;28;20508;-70
2021/10/14 10:55:38;;;;;;;12.27;8.13;;;14.70;92.70;;;;;;4983474;28;20549;-68
2021/10/14 10:58:08;;;;;;;9.02;6.32;;;14.90;92.70;;;;;;4983045;28;20056;-72
2021/10/14 11:00:35;;;;;;;10.52;6.30;;;15.10;92.50;;;;;;5001389;28;20072;-68
2021/10/14 11:03:15;;;;;;;12.68;7.50;;;15.30;92.30;;;;;;4999961;28;20133;-67
2021/10/14 11:05:53;;;;;;;9.23;6.88;;;15.50;92.10;;;;;;5002972;28;20657;-68
2021/10/14 11:08:21;;;;;;;17.42;10.30;;;15.60;91.70;;;;;;4983843;28;20129;-69
2021/10/14 11:10:53;;;;;;;38.22;22.65;;;15.70;91.40;;;;;;5002602;28;20052;-67
2021/10/14 11:13:19;;;;;;;17.10;10.63;;;15.70;91.30;;;;;;5000779;28;20478;-68
2021/10/14 11:15:47;;;;;;;11.98;7.80;;;15.80;91.40;;;;;;5003132;28;20040;-68
2021/10/14 11:18:13;;;;;;;17.80;11.98;;;15.80;91.20;;;;;;5002521;28;20082;-68
2021/10/14 11:20:49;;;;;;;11.20;8.23;;;15.80;91.10;;;;;;5002418;28;20734;-68
2021/10/14 11:23:15;;;;;;;12.13;7.72;;;15.90;90.80;;;;;;5000523;28;20041;-67
2021/10/14 11:25:41;;;;;;;11.20;7.15;;;15.90;91.00;;;;;;5002386;28;20026;-67
2021/10/14 11:28:10;;;;;;;13.63;8.07;;;16.00;90.60;;;;;;5002838;28;20111;-67
2021/10/14 11:30:42;;;;;;;11.25;7.10;;;16.00;90.50;;;;;;5002847;28;20545;-66
2021/10/14 11:33:33;;;;;;;10.25;7.07;;;16.10;90.70;;;;;;4999859;28;20045;-70
2021/10/14 11:36:04;;;;;;;9.80;6.88;;;16.10;91.00;;;;;;4999285;28;20037;-68
2021/10/14 11:38:30;;;;;;;12.45;8.63;;;16.20;90.10;;;;;;5001456;28;20461;-68
2021/10/14 11:40:56;;;;;;;10.80;7.63;;;16.10;89.30;;;;;;5003117;28;20034;-68
2021/10/14 11:43:27;;;;;;;11.00;6.75;;;16.00;90.10;;;;;;5002856;28;20470;-69
2021/10/14 11:45:54;;;;;;;10.38;6.78;;;16.00;90.30;;;;;;5002106;28;20456;-68
2021/10/14 11:48:34;;;;;;;11.02;6.80;;;15.90;90.20;;;;;;5002432;28;20038;-65
2021/10/14 11:51:03;;;;;;;7.60;5.70;;;15.90;90.50;;;;;;5002394;28;20040;-65
2021/10/14 11:53:29;;;;;;;7.13;4.70;;;15.90;90.60;;;;;;5002382;28;20038;-65
2021/10/14 11:56:04;;;;;;;8.90;5.22;;;15.90;90.60;;;;;;5002925;28;20460;-65
2021/10/14 11:58:31;;;;;;;12.30;5.43;;;16.00;90.80;;;;;;5001352;28;20049;-65
2021/10/14 12:01:00;;;;;;;8.77;5.45;;;16.00;90.60;;;;;;5002112;28;20059;-66
2021/10/14 12:03:27;;;;;;;9.32;5.68;;;16.00;90.80;;;;;;4999442;28;20045;-66
2021/10/14 12:05:53;;;;;;;10.98;6.07;;;16.00;90.40;;;;;;5000240;28;20104;-65
2021/10/14 12:08:19;;;;;;;10.75;6.30;;;16.00;90.10;;;;;;4983612;28;20065;-65
2021/10/14 12:10:54;;;;;;;9.57;5.68;;;16.00;90.20;;;;;;5001196;28;20485;-65
2021/10/14 12:13:26;;;;;;;9.77;6.65;;;15.90;90.00;;;;;;5001632;28;20033;-66
2021/10/14 12:16:13;;;;;;;8.60;5.28;;;15.90;90.30;;;;;;4981672;28;20030;-68
2021/10/14 12:18:39;;;;;;;9.05;5.60;;;15.90;90.10;;;;;;5001407;28;20125;-69
2021/10/14 12:21:30;;;;;;;8.95;5.32;;;15.80;90.30;;;;;;4984264;28;20042;-70
2021/10/14 12:24:15;;;;;;;7.70;5.40;;;15.80;90.10;;;;;;4991732;28;20818;-68
2021/10/14 12:26:46;;;;;;;9.98;5.65;;;15.80;90.00;;;;;;5001863;28;20113;-69
2021/10/14 12:29:31;;;;;;;9.45;5.57;;;15.90;90.60;;;;;;5001370;28;20039;-70
2021/10/14 12:32:06;;;;;;;11.07;6.20;;;16.00;90.50;;;;;;5000849;28;20041;-71
2021/10/14 12:34:43;;;;;;;10.90;6.07;;;16.10;90.30;;;;;;4999441;28;20072;-69
2021/10/14 12:37:10;;;;;;;11.05;5.78;;;16.10;89.00;;;;;;5000988;28;20517;-67
2021/10/14 12:39:38;;;;;;;14.45;8.75;;;16.10;89.50;;;;;;5000808;28;20038;-68
2021/10/14 12:42:04;;;;;;;9.95;6.35;;;16.20;89.10;;;;;;5001174;28;20087;-67
2021/10/14 12:44:43;;;;;;;8.80;5.25;;;16.20;89.40;;;;;;5000432;28;20168;-67
2021/10/14 12:47:47;;;;;;;9.10;5.65;;;16.20;89.10;;;;;;4983292;28;20034;-67
2021/10/14 12:50:30;;;;;;;14.07;8.45;;;16.10;89.40;;;;;;5000670;28;20037;-67
2021/10/14 12:53:15;;;;;;;12.05;7.68;;;16.10;89.30;;;;;;5001336;28;20055;-67